createdAt,value
2023-05-09T00:00:11.245Z,8.40
2023-05-09T00:02:41.438Z,8.40
2023-05-09T00:05:11.555Z,8.40
2023-05-09T00:07:40.444Z,8.30
2023-05-09T00:10:09.409Z,8.30
2023-05-09T00:12:38.083Z,8.30
2023-05-09T00:15:08.469Z,8.20
2023-05-09T00:17:38.786Z,8.20
2023-05-09T00:20:12.584Z,8.10
2023-05-09T00:22:42.840Z,8.10
2023-05-09T00:25:12.765Z,8.10
2023-05-09T00:27:41.415Z,8.10
2023-05-09T00:30:10.826Z,8.00
2023-05-09T00:32:40.382Z,8.00
2023-05-09T00:35:10.312Z,8.00
2023-05-09T00:37:38.818Z,8.00
2023-05-09T00:40:10.030Z,7.90
2023-05-09T00:42:38.825Z,7.90
2023-05-09T00:45:08.424Z,7.90
2023-05-09T00:47:36.895Z,7.90
2023-05-09T00:50:06.127Z,7.90
2023-05-09T00:52:34.777Z,7.80
2023-05-09T00:55:04.872Z,7.80
2023-05-09T00:57:34.670Z,7.80
2023-05-09T01:00:05.074Z,7.80
2023-05-09T01:02:33.574Z,7.80
2023-05-09T01:05:02.405Z,7.80
2023-05-09T01:07:38.585Z,7.70
2023-05-09T01:10:12.898Z,7.70
2023-05-09T01:12:55.018Z,7.70
2023-05-09T01:15:30.662Z,7.60
2023-05-09T01:18:04.845Z,7.60
2023-05-09T01:20:37.114Z,7.50
2023-05-09T01:23:22.312Z,7.50
2023-05-09T01:26:04.714Z,7.40
2023-05-09T01:29:06.382Z,7.40
2023-05-09T01:31:39.544Z,7.40
2023-05-09T01:34:10.344Z,7.30
2023-05-09T01:36:41.286Z,7.20
2023-05-09T01:39:13.689Z,7.20
2023-05-09T01:41:42.245Z,7.20
2023-05-09T01:44:13.583Z,7.10
2023-05-09T01:46:45.239Z,7.10
2023-05-09T01:49:14.824Z,7.00
2023-05-09T01:51:44.526Z,7.00
2023-05-09T01:54:14.926Z,7.00
2023-05-09T01:56:45.095Z,6.90
2023-05-09T01:59:16.437Z,6.90
2023-05-09T02:01:48.040Z,6.90
2023-05-09T02:04:18.360Z,6.80
2023-05-09T02:06:51.429Z,6.80
2023-05-09T02:09:20.583Z,6.80
2023-05-09T02:11:49.022Z,6.80
2023-05-09T02:14:17.507Z,6.70
2023-05-09T02:16:47.683Z,6.70
2023-05-09T02:19:16.956Z,6.70
2023-05-09T02:21:45.619Z,6.70
2023-05-09T02:24:14.212Z,6.70
2023-05-09T02:26:43.569Z,6.70
2023-05-09T02:29:13.117Z,6.60
2023-05-09T02:31:44.164Z,6.60
2023-05-09T02:34:15.080Z,6.60
2023-05-09T02:36:43.765Z,6.60
2023-05-09T02:39:12.453Z,6.60
2023-05-09T02:41:40.997Z,6.60
2023-05-09T02:44:09.411Z,6.60
2023-05-09T02:46:37.759Z,6.60
2023-05-09T02:49:06.097Z,6.50
2023-05-09T02:51:36.529Z,6.50
2023-05-09T02:54:06.493Z,6.50
2023-05-09T02:56:35.038Z,6.50
2023-05-09T02:59:03.512Z,6.40
2023-05-09T03:01:32.024Z,6.40
2023-05-09T03:04:00.443Z,6.40
2023-05-09T03:06:28.926Z,6.30
2023-05-09T03:08:58.731Z,6.30
2023-05-09T03:11:27.780Z,6.30
2023-05-09T03:13:56.229Z,6.30
2023-05-09T03:16:24.958Z,6.30
2023-05-09T03:18:53.484Z,6.20
2023-05-09T03:21:22.131Z,6.20
2023-05-09T03:23:50.622Z,6.20
2023-05-09T03:26:20.930Z,6.10
2023-05-09T03:28:50.221Z,6.10
2023-05-09T03:31:18.791Z,6.10
2023-05-09T03:33:47.194Z,6.10
2023-05-09T03:36:16.554Z,6.10
2023-05-09T03:38:45.894Z,6.10
2023-05-09T03:41:17.550Z,6.10
2023-05-09T03:43:49.469Z,6.10
2023-05-09T03:46:17.960Z,6.20
2023-05-09T03:48:49.344Z,6.20
2023-05-09T03:51:18.707Z,6.20
2023-05-09T03:53:48.293Z,6.30
2023-05-09T03:56:17.317Z,6.30
2023-05-09T03:58:52.885Z,6.40
2023-05-09T04:01:21.869Z,6.40
2023-05-09T04:03:50.480Z,6.50
2023-05-09T04:06:19.333Z,6.50
2023-05-09T04:08:47.811Z,6.60
2023-05-09T04:11:16.228Z,6.70
2023-05-09T04:13:47.739Z,6.80
2023-05-09T04:16:28.162Z,6.80
2023-05-09T04:18:56.650Z,6.90
2023-05-09T04:21:25.157Z,7.00
2023-05-09T04:23:56.768Z,7.10
2023-05-09T04:26:32.516Z,7.20
2023-05-09T04:29:01.773Z,7.30
2023-05-09T04:31:31.726Z,7.40
2023-05-09T04:34:01.566Z,7.60
2023-05-09T04:36:34.152Z,7.70
2023-05-09T04:39:02.695Z,7.80
2023-05-09T04:41:32.554Z,7.90
2023-05-09T04:44:02.119Z,8.10
2023-05-09T04:46:32.495Z,8.20
2023-05-09T04:49:00.993Z,8.30
2023-05-09T04:51:29.366Z,8.40
2023-05-09T04:53:57.679Z,8.60
2023-05-09T04:56:31.998Z,8.80
2023-05-09T04:59:01.739Z,9.20
2023-05-09T05:01:32.610Z,9.50
2023-05-09T05:04:01.896Z,9.80
2023-05-09T05:06:33.047Z,10.20
2023-05-09T05:09:01.955Z,10.50
2023-05-09T05:11:30.447Z,10.80
2023-05-09T05:13:59.177Z,11.00
2023-05-09T05:16:28.247Z,11.20
2023-05-09T05:18:58.203Z,11.50
2023-05-09T05:21:27.253Z,11.70
2023-05-09T05:23:55.734Z,11.90
2023-05-09T05:26:24.186Z,12.20
2023-05-09T05:28:55.646Z,12.50
2023-05-09T05:31:24.597Z,12.80
2023-05-09T05:33:53.031Z,13.10
2023-05-09T05:36:24.064Z,13.40
2023-05-09T05:38:52.736Z,13.60
2023-05-09T05:41:21.299Z,13.80
2023-05-09T05:43:53.476Z,13.80
2023-05-09T05:46:22.835Z,13.70
2023-05-09T05:48:51.373Z,13.60
2023-05-09T05:51:19.853Z,13.60
2023-05-09T05:53:49.548Z,13.60
2023-05-09T05:56:18.043Z,13.60
2023-05-09T05:58:46.720Z,13.60
2023-05-09T06:01:15.177Z,13.60
2023-05-09T06:03:43.719Z,13.50
2023-05-09T06:06:12.378Z,13.60
2023-05-09T06:08:40.857Z,13.50
2023-05-09T06:11:10.859Z,13.60
2023-05-09T06:13:39.788Z,13.80
2023-05-09T06:16:18.421Z,14.10
2023-05-09T06:18:53.417Z,14.50
2023-05-09T06:21:24.400Z,14.80
2023-05-09T06:26:26.410Z,15.30
2023-05-09T06:28:54.817Z,15.70
2023-05-09T06:31:24.910Z,16.10
2023-05-09T06:33:54.709Z,16.30
2023-05-09T06:36:23.216Z,16.40
2023-05-09T06:38:51.621Z,16.50
2023-05-09T06:41:19.962Z,16.40
2023-05-09T06:43:50.004Z,16.30
2023-05-09T06:46:18.615Z,16.10
2023-05-09T06:48:47.122Z,15.90
2023-05-09T06:51:16.483Z,15.70
2023-05-09T06:53:44.918Z,15.60
2023-05-09T06:56:13.479Z,15.50
2023-05-09T06:58:44.240Z,15.40
2023-05-09T07:01:14.175Z,15.30
2023-05-09T07:03:42.658Z,15.30
2023-05-09T07:06:11.045Z,15.30
2023-05-09T07:08:39.536Z,15.30
2023-05-09T07:11:07.892Z,15.30
2023-05-09T07:13:36.628Z,15.30
2023-05-09T07:16:05.064Z,15.30
2023-05-09T07:18:34.810Z,15.30
2023-05-09T07:21:03.475Z,15.30
2023-05-09T07:23:31.858Z,15.30
2023-05-09T07:26:01.549Z,15.30
2023-05-09T07:28:30.141Z,15.40
2023-05-09T07:30:58.514Z,15.50
2023-05-09T07:33:26.959Z,15.60
2023-05-09T07:35:56.729Z,15.80
2023-05-09T07:38:25.239Z,16.00
2023-05-09T07:40:54.132Z,16.20
2023-05-09T07:43:22.512Z,16.60
2023-05-09T07:45:51.035Z,17.20
2023-05-09T07:48:19.444Z,17.80
2023-05-09T07:50:47.878Z,18.50
2023-05-09T07:53:17.625Z,19.30
2023-05-09T07:55:48.448Z,19.90
2023-05-09T07:58:16.918Z,20.50
2023-05-09T08:00:45.362Z,21.10
2023-05-09T08:03:14.026Z,21.60
2023-05-09T08:05:42.499Z,22.00
2023-05-09T08:08:10.894Z,22.30
2023-05-09T08:10:40.750Z,22.70
2023-05-09T08:13:09.308Z,23.00
2023-05-09T08:15:37.827Z,23.20
2023-05-09T08:18:06.690Z,23.40
2023-05-09T08:20:35.213Z,23.60
2023-05-09T08:23:03.684Z,23.70
2023-05-09T08:25:32.214Z,23.80
2023-05-09T08:28:01.981Z,23.90
2023-05-09T08:30:30.584Z,23.90
2023-05-09T08:32:59.156Z,24.10
2023-05-09T08:35:27.495Z,24.00
2023-05-09T08:37:55.956Z,24.00
2023-05-09T08:40:24.440Z,24.20
2023-05-09T08:42:53.397Z,24.50
2023-05-09T08:45:31.768Z,24.50
2023-05-09T08:48:00.921Z,24.70
2023-05-09T08:50:30.194Z,24.80
2023-05-09T08:52:58.765Z,24.80
2023-05-09T08:55:27.733Z,24.80
2023-05-09T08:57:56.327Z,24.80
2023-05-09T09:00:28.177Z,25.00
2023-05-09T09:03:00.075Z,25.00
2023-05-09T09:05:41.173Z,25.00
2023-05-09T09:08:12.405Z,25.00
2023-05-09T09:10:47.261Z,25.10
2023-05-09T09:13:18.170Z,25.00
2023-05-09T09:15:49.563Z,25.10
2023-05-09T09:18:22.137Z,25.00
2023-05-09T09:20:54.488Z,25.00
2023-05-09T09:23:26.510Z,25.00
2023-05-09T09:26:00.272Z,24.90
2023-05-09T09:28:29.614Z,25.00
2023-05-09T09:30:59.508Z,24.90
2023-05-09T09:33:29.880Z,24.90
2023-05-09T09:35:59.865Z,24.90
2023-05-09T09:38:28.448Z,25.00
2023-05-09T09:40:57.432Z,25.10
2023-05-09T09:43:29.899Z,25.10
2023-05-09T09:46:02.931Z,25.20
2023-05-09T09:48:34.835Z,25.30
2023-05-09T09:51:11.506Z,25.40
2023-05-09T09:53:44.434Z,25.30
2023-05-09T09:56:13.050Z,25.40
2023-05-09T09:58:41.482Z,25.30
2023-05-09T10:01:14.017Z,25.30
2023-05-09T10:03:44.282Z,25.40
2023-05-09T10:06:13.463Z,25.40
2023-05-09T10:08:42.962Z,25.50
2023-05-09T10:11:11.640Z,25.50
2023-05-09T10:13:40.617Z,25.60
2023-05-09T10:16:12.610Z,25.60
2023-05-09T10:18:43.763Z,25.50
2023-05-09T10:21:15.918Z,25.40
2023-05-09T10:23:47.628Z,25.20
2023-05-09T10:26:22.967Z,25.10
2023-05-09T10:28:56.103Z,25.00
2023-05-09T10:31:28.093Z,24.90
2023-05-09T10:33:57.289Z,24.80
2023-05-09T10:36:26.137Z,24.70
2023-05-09T10:38:56.610Z,24.70
2023-05-09T10:41:25.780Z,24.60
2023-05-09T10:43:56.724Z,24.70
2023-05-09T10:46:27.573Z,24.80
2023-05-09T10:48:56.579Z,25.00
2023-05-09T10:51:26.146Z,25.00
2023-05-09T10:53:56.061Z,25.00
2023-05-09T10:56:26.591Z,24.80
2023-05-09T10:58:55.804Z,24.60
2023-05-09T11:01:35.485Z,24.40
2023-05-09T11:04:12.705Z,24.20
2023-05-09T11:06:49.580Z,24.10
2023-05-09T11:09:29.257Z,24.10
2023-05-09T11:11:59.134Z,24.20
2023-05-09T11:14:31.768Z,24.10
2023-05-09T11:17:03.971Z,24.20
2023-05-09T11:19:37.407Z,24.20
2023-05-09T11:22:15.200Z,24.40
2023-05-09T11:24:47.381Z,24.60
2023-05-09T11:27:17.074Z,24.80
2023-05-09T11:29:47.489Z,25.00
2023-05-09T11:32:17.718Z,25.20
2023-05-09T11:34:46.499Z,25.50
2023-05-09T11:37:17.988Z,25.80
2023-05-09T11:40:01.125Z,26.00
2023-05-09T11:42:30.676Z,26.20
2023-05-09T11:45:00.058Z,26.20
2023-05-09T11:47:31.095Z,26.20
2023-05-09T11:49:59.535Z,26.20
2023-05-09T11:52:27.988Z,26.20
2023-05-09T11:54:56.504Z,26.00
2023-05-09T11:57:24.991Z,25.80
2023-05-09T11:59:54.022Z,25.60
2023-05-09T12:02:24.548Z,25.60
2023-05-09T12:04:55.155Z,25.60
2023-05-09T12:07:23.535Z,25.50
2023-05-09T12:09:52.836Z,25.30
2023-05-09T12:12:21.798Z,25.10
2023-05-09T12:14:50.733Z,25.00
2023-05-09T12:17:19.133Z,25.10
2023-05-09T12:19:48.356Z,25.40
2023-05-09T12:22:18.090Z,25.40
2023-05-09T12:24:46.624Z,25.20
2023-05-09T12:27:15.122Z,24.90
2023-05-09T12:29:46.153Z,24.40
2023-05-09T12:32:15.277Z,24.30
2023-05-09T12:34:45.590Z,24.40
2023-05-09T12:37:20.390Z,24.70
2023-05-09T12:40:04.322Z,25.10
2023-05-09T12:42:33.072Z,25.80
2023-05-09T12:45:03.365Z,26.30
2023-05-09T12:47:33.159Z,27.00
2023-05-09T12:50:03.428Z,27.50
2023-05-09T12:52:46.909Z,27.70
2023-05-09T12:55:23.057Z,27.60
2023-05-09T12:58:00.313Z,27.30
2023-05-09T13:00:29.253Z,27.40
2023-05-09T13:02:57.989Z,27.20
2023-05-09T13:05:26.401Z,26.80
2023-05-09T13:07:58.701Z,26.50
2023-05-09T13:10:29.014Z,26.20
2023-05-09T13:12:57.558Z,26.30
2023-05-09T13:15:26.915Z,26.50
2023-05-09T13:17:57.055Z,26.60
2023-05-09T13:20:25.616Z,26.70
2023-05-09T13:22:55.610Z,27.00
2023-05-09T13:25:24.088Z,27.40
2023-05-09T13:27:52.540Z,27.70
2023-05-09T13:30:21.132Z,28.00
2023-05-09T13:32:49.744Z,28.00
2023-05-09T13:35:18.382Z,28.00
2023-05-09T13:37:46.816Z,28.00
2023-05-09T13:40:17.127Z,28.10
2023-05-09T13:42:45.957Z,28.20
2023-05-09T13:45:14.544Z,28.30
2023-05-09T13:47:43.266Z,28.30
2023-05-09T13:50:12.740Z,28.10
2023-05-09T13:52:41.434Z,27.70
2023-05-09T13:55:10.234Z,27.10
2023-05-09T13:57:40.082Z,26.60
2023-05-09T14:00:09.701Z,26.00
2023-05-09T14:02:41.406Z,25.60
2023-05-09T14:05:10.392Z,25.10
2023-05-09T14:07:38.812Z,24.60
2023-05-09T14:10:11.851Z,24.20
2023-05-09T14:12:44.595Z,23.80
2023-05-09T14:15:13.210Z,23.40
2023-05-09T14:17:41.731Z,22.90
2023-05-09T14:20:10.768Z,22.40
2023-05-09T14:22:39.165Z,22.10
2023-05-09T14:25:07.884Z,21.70
2023-05-09T14:27:37.321Z,21.40
2023-05-09T14:30:08.804Z,21.20
2023-05-09T14:32:37.318Z,21.00
2023-05-09T14:35:06.317Z,20.80
2023-05-09T14:37:34.735Z,20.70
2023-05-09T14:40:05.756Z,20.60
2023-05-09T14:42:34.353Z,20.50
2023-05-09T14:45:02.728Z,20.40
2023-05-09T14:47:32.455Z,20.30
2023-05-09T14:50:00.843Z,20.30
2023-05-09T14:52:29.722Z,20.20
2023-05-09T14:55:00.011Z,20.00
2023-05-09T14:57:29.042Z,19.90
2023-05-09T15:00:03.104Z,19.80
2023-05-09T15:02:39.132Z,19.70
2023-05-09T15:05:08.264Z,19.60
2023-05-09T15:07:37.030Z,19.60
2023-05-09T15:10:05.978Z,19.60
2023-05-09T15:12:34.512Z,19.50
2023-05-09T15:15:14.922Z,19.50
2023-05-09T15:17:45.268Z,19.60
2023-05-09T15:20:16.496Z,19.60
2023-05-09T15:22:45.720Z,19.60
2023-05-09T15:25:14.726Z,19.70
2023-05-09T15:27:43.414Z,19.70
2023-05-09T15:30:12.540Z,19.70
2023-05-09T15:32:41.315Z,19.70
2023-05-09T15:35:11.509Z,19.60
2023-05-09T15:37:40.204Z,19.50
2023-05-09T15:40:09.527Z,19.30
2023-05-09T15:42:38.712Z,19.20
2023-05-09T15:45:07.723Z,19.00
2023-05-09T15:47:36.300Z,18.90
2023-05-09T15:50:04.864Z,18.80
2023-05-09T15:52:34.595Z,18.70
2023-05-09T15:55:03.618Z,18.60
2023-05-09T15:57:32.020Z,18.50
2023-05-09T16:00:00.419Z,18.50
2023-05-09T16:02:29.112Z,18.50
2023-05-09T16:04:57.578Z,18.50
2023-05-09T16:07:27.351Z,18.40
2023-05-09T16:09:57.109Z,18.40
2023-05-09T16:12:25.468Z,18.30
2023-05-09T16:14:54.298Z,18.30
2023-05-09T16:17:22.880Z,18.30
2023-05-09T16:19:51.303Z,18.20
2023-05-09T16:22:19.661Z,18.10
2023-05-09T16:24:49.144Z,18.10
2023-05-09T16:27:19.051Z,18.10
2023-05-09T16:29:47.430Z,18.00
2023-05-09T16:32:16.065Z,18.00
2023-05-09T16:34:44.494Z,17.90
2023-05-09T16:37:12.934Z,17.90
2023-05-09T16:39:41.419Z,17.80
2023-05-09T16:42:09.855Z,17.80
2023-05-09T16:44:39.641Z,17.70
2023-05-09T16:47:08.106Z,17.70
2023-05-09T16:49:36.593Z,17.60
2023-05-09T16:52:05.732Z,17.50
2023-05-09T16:54:34.174Z,17.50
2023-05-09T16:57:03.441Z,17.40
2023-05-09T16:59:32.895Z,17.40
2023-05-09T17:02:04.726Z,17.30
2023-05-09T17:04:34.753Z,17.30
2023-05-09T17:07:04.451Z,17.20
2023-05-09T17:09:33.639Z,17.10
2023-05-09T17:12:02.557Z,17.00
2023-05-09T17:14:31.142Z,17.00
2023-05-09T17:16:59.765Z,16.90
2023-05-09T17:19:29.524Z,16.90
2023-05-09T17:21:59.007Z,16.80
2023-05-09T17:24:27.469Z,16.80
2023-05-09T17:26:56.882Z,16.70
2023-05-09T17:29:26.927Z,16.60
2023-05-09T17:31:55.500Z,16.60
2023-05-09T17:34:24.093Z,16.50
2023-05-09T17:36:54.070Z,16.40
2023-05-09T17:39:22.545Z,16.40
2023-05-09T17:41:50.987Z,16.30
2023-05-09T17:44:19.510Z,16.20
2023-05-09T17:46:49.383Z,16.10
2023-05-09T17:49:18.431Z,16.00
2023-05-09T17:51:46.871Z,15.90
2023-05-09T17:54:19.076Z,15.90
2023-05-09T17:56:51.108Z,15.80
2023-05-09T17:59:19.588Z,15.70
2023-05-09T18:01:48.057Z,15.70
2023-05-09T18:04:16.918Z,15.60
2023-05-09T18:06:45.424Z,15.50
2023-05-09T18:09:13.891Z,15.50
2023-05-09T18:11:43.720Z,15.40
2023-05-09T18:14:12.973Z,15.30
2023-05-09T18:16:41.744Z,15.20
2023-05-09T18:19:10.242Z,15.20
2023-05-09T18:21:38.813Z,15.10
2023-05-09T18:24:09.193Z,15.00
2023-05-09T18:26:38.044Z,14.90
2023-05-09T18:29:07.874Z,14.90
2023-05-09T18:31:38.983Z,14.80
2023-05-09T18:34:07.454Z,14.70
2023-05-09T18:36:36.173Z,14.70
2023-05-09T18:39:04.857Z,14.60
2023-05-09T18:41:34.340Z,14.50
2023-05-09T18:44:02.784Z,14.50
2023-05-09T18:46:33.933Z,14.40
2023-05-09T18:49:04.025Z,14.30
2023-05-09T18:51:34.103Z,14.20
2023-05-09T18:54:02.549Z,14.20
2023-05-09T18:56:31.248Z,14.10
2023-05-09T18:58:59.630Z,14.00
2023-05-09T19:01:28.118Z,13.90
2023-05-09T19:03:58.325Z,13.90
2023-05-09T19:06:27.103Z,13.80
2023-05-09T19:08:55.425Z,13.70
2023-05-09T19:11:23.862Z,13.70
2023-05-09T19:13:53.125Z,13.70
2023-05-09T19:16:22.595Z,13.60
2023-05-09T19:18:51.496Z,13.60
2023-05-09T19:21:21.379Z,13.50
2023-05-09T19:23:50.075Z,13.50
2023-05-09T19:26:18.904Z,13.50
2023-05-09T19:28:48.130Z,13.40
2023-05-09T19:31:18.998Z,13.30
2023-05-09T19:33:49.677Z,13.30
2023-05-09T19:36:19.012Z,13.30
2023-05-09T19:38:48.701Z,13.20
2023-05-09T19:41:17.276Z,13.20
2023-05-09T19:43:46.666Z,13.10
2023-05-09T19:46:15.159Z,13.10
2023-05-09T19:48:43.671Z,13.10
2023-05-09T19:51:14.284Z,13.00
2023-05-09T19:53:42.673Z,13.00
2023-05-09T19:56:12.803Z,13.00
2023-05-09T19:58:41.162Z,12.90
2023-05-09T20:01:09.773Z,12.90
2023-05-09T20:03:41.143Z,12.90
2023-05-09T20:06:09.608Z,12.80
2023-05-09T20:08:38.035Z,12.80
2023-05-09T20:11:07.448Z,12.70
2023-05-09T20:13:37.109Z,12.70
2023-05-09T20:16:05.597Z,12.60
2023-05-09T20:18:34.329Z,12.50
2023-05-09T20:21:03.190Z,12.50
2023-05-09T20:23:32.120Z,12.40
2023-05-09T20:26:01.449Z,12.30
2023-05-09T20:28:29.791Z,12.20
2023-05-09T20:30:59.481Z,12.10
2023-05-09T20:33:27.901Z,12.00
2023-05-09T20:35:56.509Z,11.90
2023-05-09T20:38:24.930Z,11.80
2023-05-09T20:40:53.308Z,11.70
2023-05-09T20:43:21.659Z,11.70
2023-05-09T20:45:50.183Z,11.60
2023-05-09T20:48:22.548Z,11.50
2023-05-09T20:50:51.085Z,11.40
2023-05-09T20:53:19.434Z,11.40
2023-05-09T20:55:50.226Z,11.30
2023-05-09T20:58:18.882Z,11.30
2023-05-09T21:00:47.668Z,11.20
2023-05-09T21:03:16.202Z,11.20
2023-05-09T21:05:45.829Z,11.10
2023-05-09T21:08:14.167Z,11.10
2023-05-09T21:10:42.546Z,11.10
2023-05-09T21:13:10.822Z,11.00
2023-05-09T21:15:39.189Z,11.00
2023-05-09T21:18:07.545Z,11.00
2023-05-09T21:20:35.956Z,10.90
2023-05-09T21:23:05.638Z,10.90
2023-05-09T21:25:33.995Z,10.90
2023-05-09T21:28:02.424Z,10.80
2023-05-09T21:30:30.831Z,10.80
2023-05-09T21:32:59.225Z,10.80
2023-05-09T21:35:27.564Z,10.70
2023-05-09T21:37:55.882Z,10.70
2023-05-09T21:40:25.618Z,10.70
2023-05-09T21:42:53.975Z,10.70
2023-05-09T21:45:22.292Z,10.70
2023-05-09T21:47:50.751Z,10.70
2023-05-09T21:50:19.277Z,10.70
2023-05-09T21:52:47.553Z,10.70
2023-05-09T21:55:16.303Z,10.70
2023-05-09T21:57:45.889Z,10.70
2023-05-09T22:00:15.548Z,10.70
2023-05-09T22:02:44.153Z,10.70
2023-05-09T22:05:13.164Z,10.70
2023-05-09T22:07:41.521Z,10.80
2023-05-09T22:10:10.800Z,10.80
2023-05-09T22:12:39.464Z,10.80
2023-05-09T22:15:09.856Z,10.80
2023-05-09T22:17:39.441Z,10.90
2023-05-09T22:20:09.242Z,10.90
2023-05-09T22:22:37.652Z,10.90
2023-05-09T22:25:06.553Z,10.90
2023-05-09T22:27:34.941Z,10.90
2023-05-09T22:30:03.664Z,10.90
2023-05-09T22:32:33.546Z,10.90
2023-05-09T22:35:02.405Z,10.90
2023-05-09T22:37:30.945Z,10.90
2023-05-09T22:40:01.517Z,10.90
2023-05-09T22:42:30.361Z,10.90
2023-05-09T22:44:59.103Z,10.90
2023-05-09T22:47:27.520Z,10.90
2023-05-09T22:49:57.380Z,10.90
2023-05-09T22:52:26.458Z,10.90
2023-05-09T22:54:54.956Z,10.80
2023-05-09T22:57:24.014Z,10.80
2023-05-09T22:59:53.324Z,10.80
2023-05-09T23:02:22.412Z,10.80
2023-05-09T23:04:50.953Z,10.80
2023-05-09T23:07:20.620Z,10.80
2023-05-09T23:09:52.073Z,10.80
2023-05-09T23:12:20.504Z,10.80
2023-05-09T23:14:48.939Z,10.80
2023-05-09T23:17:17.280Z,10.80
2023-05-09T23:19:46.417Z,10.80
2023-05-09T23:22:14.935Z,10.70
2023-05-09T23:24:44.644Z,10.70
2023-05-09T23:27:13.074Z,10.70
2023-05-09T23:29:41.489Z,10.60
2023-05-09T23:32:09.937Z,10.60
2023-05-09T23:34:39.269Z,10.50
2023-05-09T23:37:07.712Z,10.50
2023-05-09T23:39:36.628Z,10.40
2023-05-09T23:42:06.431Z,10.40
2023-05-09T23:44:35.375Z,10.30
2023-05-09T23:47:03.893Z,10.30
2023-05-09T23:49:32.353Z,10.20
2023-05-09T23:52:00.689Z,10.20
2023-05-09T23:54:29.105Z,10.10
2023-05-09T23:56:57.873Z,10.10
2023-05-09T23:59:27.613Z,10.00
